Time;durP1;ratioP1;P1;durP2;ratioP2;P2;SDS_P1;SDS_P2;PMS_P1;PMS_P2;Temp;Humidity;BMP_temperature;BMP_pressure;BME280_temperature;BME280_humidity;BME280_pressure;Samples;Min_cycle;Max_cycle;Signal;HPM_P1;HPM_P2
2022/03/31 00:00:00;;;;;;;30.95;17.50;;;4.80;99.90;;;;;;5043971;28;20091;-70
2022/03/31 00:02:26;;;;;;;28.95;17.85;;;4.70;99.90;;;;;;4685300;28;10000000;-70
2022/03/31 00:04:52;;;;;;;28.88;17.27;;;4.60;99.90;;;;;;5038462;28;20024;-70
2022/03/31 00:07:17;;;;;;;27.20;17.60;;;4.50;99.90;;;;;;5047391;28;20017;-71
2022/03/31 00:09:43;;;;;;;28.55;17.80;;;4.50;99.90;;;;;;5042588;28;20318;-70
2022/03/31 00:12:09;;;;;;;28.85;17.17;;;4.40;99.90;;;;;;5039284;28;20717;-70
2022/03/31 00:14:35;;;;;;;27.63;16.92;;;4.30;99.90;;;;;;5035816;28;20025;-70
2022/03/31 00:17:01;;;;;;;30.27;17.65;;;4.30;99.90;;;;;;5051336;28;20036;-70
2022/03/31 00:19:26;;;;;;;29.25;16.92;;;4.30;99.90;;;;;;5046903;28;20151;-70
2022/03/31 00:21:52;;;;;;;25.17;15.73;;;4.20;99.90;;;;;;5036457;28;20033;-70
2022/03/31 00:24:17;;;;;;;27.13;15.45;;;4.20;99.90;;;;;;5037038;28;20033;-70
2022/03/31 00:26:43;;;;;;;25.85;15.82;;;4.20;99.90;;;;;;5041230;28;20305;-70
2022/03/31 00:29:09;;;;;;;27.65;16.58;;;4.20;99.90;;;;;;5042138;28;20354;-70
2022/03/31 00:31:34;;;;;;;29.48;15.90;;;4.30;99.90;;;;;;5032867;28;20056;-70
2022/03/31 00:34:00;;;;;;;25.75;15.55;;;4.50;99.90;;;;;;5032494;28;20029;-70
2022/03/31 00:36:26;;;;;;;25.95;14.60;;;4.60;99.90;;;;;;5042891;28;20384;-70
2022/03/31 00:41:39;;;;;;;25.45;14.75;;;4.60;99.90;;;;;;5050054;28;20039;-70
2022/03/31 00:44:05;;;;;;;28.75;15.43;;;4.50;99.90;;;;;;5036274;28;20453;-70
2022/03/31 00:46:31;;;;;;;21.70;13.63;;;4.40;99.90;;;;;;5043153;28;20051;-70
2022/03/31 00:48:57;;;;;;;23.25;14.57;;;4.30;99.90;;;;;;5039568;28;20155;-70
2022/03/31 00:51:23;;;;;;;28.02;15.25;;;4.30;99.90;;;;;;5034020;28;20033;-70
2022/03/31 00:53:48;;;;;;;29.25;15.60;;;4.20;99.90;;;;;;5055919;28;20028;-70
2022/03/31 00:56:16;;;;;;;25.65;14.02;;;4.10;99.90;;;;;;5043592;28;20435;-70
2022/03/31 00:58:43;;;;;;;24.20;13.98;;;4.20;99.90;;;;;;5049397;28;20316;-70
2022/03/31 01:01:09;;;;;;;24.20;14.45;;;4.20;99.90;;;;;;5037302;28;20116;-70
2022/03/31 01:03:35;;;;;;;26.85;14.15;;;4.20;99.90;;;;;;5030391;28;20025;-70
2022/03/31 01:06:01;;;;;;;23.38;13.35;;;4.30;99.90;;;;;;5040357;28;20044;-70
2022/03/31 01:08:27;;;;;;;24.10;14.07;;;4.30;99.90;;;;;;5043672;28;20029;-70
2022/03/31 01:10:53;;;;;;;22.42;12.90;;;4.30;99.90;;;;;;5037573;28;20306;-70
2022/03/31 01:13:19;;;;;;;23.17;13.27;;;4.50;99.90;;;;;;5032650;28;20388;-70
2022/03/31 01:15:45;;;;;;;24.73;13.82;;;4.50;99.90;;;;;;5044360;28;20083;-70
2022/03/31 01:18:10;;;;;;;23.90;14.07;;;4.50;99.90;;;;;;5041074;28;20036;-70
2022/03/31 01:20:36;;;;;;;25.33;14.68;;;4.50;99.90;;;;;;5044457;28;20063;-70
2022/03/31 01:23:04;;;;;;;24.25;14.02;;;4.40;99.90;;;;;;5038456;28;20059;-70
2022/03/31 01:25:30;;;;;;;25.08;14.57;;;4.40;99.90;;;;;;5038632;28;20029;-70
2022/03/31 01:27:56;;;;;;;27.73;16.92;;;4.30;99.90;;;;;;5045305;28;20114;-70
2022/03/31 01:30:22;;;;;;;26.02;15.55;;;4.30;99.90;;;;;;5031717;28;20064;-70
2022/03/31 01:32:49;;;;;;;28.42;16.90;;;4.40;99.90;;;;;;5046908;28;20026;-70
2022/03/31 01:35:14;;;;;;;29.95;17.02;;;4.50;99.90;;;;;;5033283;28;20033;-70
2022/03/31 01:37:41;;;;;;;31.48;17.42;;;4.50;99.90;;;;;;5033622;28;20028;-70
2022/03/31 01:40:07;;;;;;;27.20;16.65;;;4.50;99.90;;;;;;5043984;28;20141;-70
2022/03/31 01:42:34;;;;;;;28.33;17.08;;;4.40;99.90;;;;;;5034587;28;20056;-70
2022/03/31 01:44:59;;;;;;;27.33;16.42;;;4.40;99.90;;;;;;5047419;28;20461;-70
2022/03/31 01:47:25;;;;;;;27.25;16.58;;;4.30;99.90;;;;;;5038624;28;20060;-70
2022/03/31 01:49:51;;;;;;;28.88;17.20;;;4.20;99.90;;;;;;5043898;28;20146;-70
2022/03/31 01:52:17;;;;;;;32.40;18.15;;;4.20;99.90;;;;;;5040369;28;20025;-70
2022/03/31 01:54:43;;;;;;;31.85;17.77;;;4.20;99.90;;;;;;5037783;28;20021;-70
2022/03/31 01:57:08;;;;;;;31.20;17.65;;;4.30;99.90;;;;;;5047334;28;21311;-70
2022/03/31 01:59:41;;;;;;;29.77;18.13;;;4.30;99.90;;;;;;5043516;28;20049;-70
2022/03/31 02:02:08;;;;;;;24.57;13.93;;;4.30;99.90;;;;;;5045618;28;20454;-70
2022/03/31 02:04:34;;;;;;;28.63;17.63;;;4.30;99.90;;;;;;5028399;28;20064;-70
2022/03/31 02:07:00;;;;;;;28.30;17.75;;;4.30;99.90;;;;;;5039324;28;20061;-69
2022/03/31 02:09:26;;;;;;;27.90;17.50;;;4.20;99.90;;;;;;5037327;28;20047;-70
2022/03/31 02:11:52;;;;;;;29.30;18.55;;;4.30;99.90;;;;;;5035929;28;20040;-70
2022/03/31 02:14:19;;;;;;;30.27;18.55;;;4.30;99.90;;;;;;5046679;28;20035;-70
2022/03/31 02:16:45;;;;;;;27.60;17.48;;;4.30;99.90;;;;;;5037230;28;20041;-70
2022/03/31 02:19:12;;;;;;;30.38;18.10;;;4.30;99.90;;;;;;5046620;28;20484;-70
2022/03/31 02:21:38;;;;;;;31.05;18.27;;;4.40;99.90;;;;;;5037331;28;20040;-70
2022/03/31 02:24:04;;;;;;;28.90;17.27;;;4.40;99.90;;;;;;5049533;28;20032;-70
2022/03/31 02:26:30;;;;;;;30.45;18.38;;;4.50;99.90;;;;;;5030304;28;20567;-69
2022/03/31 02:28:55;;;;;;;33.88;18.80;;;4.70;99.90;;;;;;5036781;28;20040;-70
2022/03/31 02:31:21;;;;;;;32.35;18.65;;;4.70;99.90;;;;;;5053405;28;20052;-70
2022/03/31 02:33:46;;;;;;;31.40;17.90;;;4.80;99.90;;;;;;5043827;28;20059;-70
2022/03/31 02:36:12;;;;;;;29.48;18.35;;;4.90;99.90;;;;;;5043250;28;20039;-70
2022/03/31 02:38:37;;;;;;;32.28;18.02;;;4.90;99.90;;;;;;5048269;28;20018;-70
2022/03/31 02:41:05;;;;;;;32.67;18.83;;;5.00;99.90;;;;;;5058360;28;20024;-70
2022/03/31 02:43:33;;;;;;;32.45;19.05;;;5.00;99.90;;;;;;5057373;28;20029;-69
2022/03/31 02:45:59;;;;;;;35.13;18.83;;;5.10;99.90;;;;;;5050180;28;20074;-70
2022/03/31 02:48:26;;;;;;;35.53;19.77;;;5.10;99.90;;;;;;5061687;28;20028;-70
2022/03/31 02:50:51;;;;;;;33.67;19.35;;;5.10;99.90;;;;;;5045745;28;20435;-70
2022/03/31 02:56:02;;;;;;;32.05;19.27;;;5.10;99.90;;;;;;5039124;28;20075;-70
2022/03/31 02:58:28;;;;;;;35.08;20.17;;;5.10;99.90;;;;;;5051032;28;20431;-70
2022/03/31 03:00:54;;;;;;;31.70;19.50;;;5.10;99.90;;;;;;5044792;28;20123;-70
2022/03/31 03:03:20;;;;;;;34.67;19.58;;;5.20;99.90;;;;;;5040358;28;20035;-70
2022/03/31 03:05:46;;;;;;;33.55;20.35;;;5.10;99.90;;;;;;5038264;28;20049;-70
2022/03/31 03:08:14;;;;;;;33.08;19.45;;;5.10;99.90;;;;;;5037783;28;20453;-70
2022/03/31 03:10:40;;;;;;;34.63;20.70;;;5.10;99.90;;;;;;5063546;28;20543;-70
2022/03/31 03:13:07;;;;;;;34.30;19.85;;;5.10;99.90;;;;;;5054799;28;20056;-70
2022/03/31 03:15:32;;;;;;;34.13;20.65;;;5.10;99.90;;;;;;5038606;28;20206;-70
2022/03/31 03:17:58;;;;;;;34.83;21.33;;;5.10;99.90;;;;;;5039206;28;20489;-70
2022/03/31 03:20:24;;;;;;;33.45;20.67;;;5.10;99.90;;;;;;5047744;28;20029;-70
2022/03/31 03:22:52;;;;;;;34.88;20.48;;;5.10;99.90;;;;;;5037669;28;20025;-70
2022/03/31 03:25:21;;;;;;;34.90;20.63;;;5.20;99.90;;;;;;5038622;28;20098;-70
2022/03/31 03:27:48;;;;;;;36.95;21.23;;;5.20;99.90;;;;;;5053321;28;20099;-70
2022/03/31 03:30:15;;;;;;;34.80;20.20;;;5.20;99.90;;;;;;5043936;28;20049;-70
2022/03/31 03:32:41;;;;;;;34.70;20.50;;;5.20;99.90;;;;;;5043387;28;20127;-70
2022/03/31 03:35:09;;;;;;;33.95;20.40;;;5.10;99.90;;;;;;5049492;28;20539;-70
2022/03/31 03:37:37;;;;;;;32.33;20.63;;;5.00;99.90;;;;;;5045477;28;20104;-70
2022/03/31 03:40:05;;;;;;;38.33;22.10;;;4.90;99.90;;;;;;5043112;28;20021;-70
2022/03/31 03:42:31;;;;;;;38.15;22.73;;;4.90;99.90;;;;;;5040836;28;20036;-70
2022/03/31 03:44:58;;;;;;;34.30;21.33;;;4.90;99.90;;;;;;5039999;28;20480;-70
2022/03/31 03:47:23;;;;;;;35.10;21.05;;;5.00;99.90;;;;;;5039746;28;20040;-70
2022/03/31 03:49:49;;;;;;;37.60;22.13;;;5.10;99.90;;;;;;5044296;28;20412;-69
2022/03/31 03:52:15;;;;;;;34.50;22.00;;;5.10;99.90;;;;;;5041991;28;20036;-70
2022/03/31 03:54:41;;;;;;;39.80;22.92;;;5.20;99.90;;;;;;5038658;28;20032;-70
2022/03/31 03:57:07;;;;;;;41.17;21.90;;;5.20;99.90;;;;;;5036139;28;20029;-70
2022/03/31 03:59:33;;;;;;;36.63;22.98;;;5.20;99.90;;;;;;5042369;28;20036;-70
2022/03/31 04:01:59;;;;;;;33.70;21.50;;;5.20;99.90;;;;;;5044815;28;20033;-70
2022/03/31 04:04:26;;;;;;;38.28;23.15;;;5.20;99.90;;;;;;5036624;28;20141;-70
2022/03/31 04:06:51;;;;;;;40.08;23.35;;;5.20;99.90;;;;;;5034413;28;20401;-70
2022/03/31 04:09:17;;;;;;;37.42;21.90;;;5.20;99.90;;;;;;5041202;28;22574;-70
2022/03/31 04:11:43;;;;;;;36.10;22.15;;;5.30;99.90;;;;;;5032324;28;20052;-70
2022/03/31 04:14:08;;;;;;;38.78;22.48;;;5.30;99.90;;;;;;5050862;28;20420;-70
2022/03/31 04:16:34;;;;;;;34.78;21.13;;;5.30;99.90;;;;;;5050686;28;20025;-69
2022/03/31 04:19:00;;;;;;;36.35;22.52;;;5.40;99.90;;;;;;5055845;28;20553;-70
2022/03/31 04:21:25;;;;;;;35.95;22.52;;;5.30;99.90;;;;;;5037602;28;20554;-69
2022/03/31 04:23:51;;;;;;;34.58;22.50;;;5.30;99.90;;;;;;5043422;28;20162;-70
2022/03/31 04:26:16;;;;;;;34.33;21.65;;;5.20;99.90;;;;;;5040353;28;20533;-70
2022/03/31 04:28:42;;;;;;;31.10;20.17;;;5.20;99.90;;;;;;5045209;28;20056;-70
2022/03/31 04:31:08;;;;;;;34.42;20.67;;;5.20;99.90;;;;;;5042733;28;20416;-70
2022/03/31 04:33:33;;;;;;;32.95;21.00;;;5.20;99.90;;;;;;5043062;28;20064;-69
2022/03/31 04:35:59;;;;;;;34.45;21.08;;;5.20;99.90;;;;;;5045203;28;20179;-70
2022/03/31 04:38:24;;;;;;;33.05;20.83;;;5.20;99.90;;;;;;5053416;28;20482;-70
2022/03/31 04:40:50;;;;;;;32.30;20.92;;;5.20;99.90;;;;;;5045936;28;20025;-70
2022/03/31 04:43:16;;;;;;;32.55;19.83;;;5.20;99.90;;;;;;5051203;28;20680;-70
2022/03/31 04:45:41;;;;;;;27.88;19.30;;;5.20;99.90;;;;;;5054254;28;20404;-69
2022/03/31 04:48:07;;;;;;;29.58;18.98;;;5.20;99.90;;;;;;5060877;28;20078;-70
2022/03/31 04:50:33;;;;;;;31.55;19.38;;;5.20;99.90;;;;;;5033470;28;20493;-70
2022/03/31 04:52:59;;;;;;;27.85;18.83;;;5.20;99.90;;;;;;5040269;28;20029;-70
2022/03/31 04:55:25;;;;;;;30.48;19.42;;;5.20;99.90;;;;;;5056066;28;20033;-70
2022/03/31 04:57:51;;;;;;;30.67;19.75;;;5.20;99.90;;;;;;5030906;28;20076;-70
2022/03/31 05:00:17;;;;;;;28.73;19.02;;;5.20;99.90;;;;;;5048645;28;20028;-70
2022/03/31 05:02:43;;;;;;;29.38;19.27;;;5.20;99.90;;;;;;5050867;28;20028;-70
2022/03/31 05:05:09;;;;;;;30.20;19.83;;;5.10;99.90;;;;;;5040759;28;20035;-70
2022/03/31 05:07:35;;;;;;;30.95;19.95;;;5.10;99.90;;;;;;5037931;28;20547;-70
2022/03/31 05:10:01;;;;;;;32.95;20.05;;;5.10;99.90;;;;;;5035276;28;20025;-70
2022/03/31 05:12:26;;;;;;;30.48;19.42;;;5.20;99.90;;;;;;5042015;28;20388;-70
2022/03/31 05:14:52;;;;;;;28.48;18.75;;;5.20;99.90;;;;;;5054473;28;20017;-70
2022/03/31 05:17:18;;;;;;;31.35;19.17;;;5.20;99.90;;;;;;5030639;28;20471;-70
2022/03/31 05:19:44;;;;;;;30.80;18.88;;;5.20;99.90;;;;;;5045388;28;20019;-70
2022/03/31 05:22:09;;;;;;;26.95;19.05;;;5.20;99.90;;;;;;5037891;28;20034;-70
2022/03/31 05:24:35;;;;;;;29.52;19.95;;;5.30;99.90;;;;;;5046558;28;20511;-70
2022/03/31 05:27:02;;;;;;;30.02;20.55;;;5.40;99.90;;;;;;5044616;28;20037;-70
2022/03/31 05:29:27;;;;;;;31.58;20.83;;;5.40;99.90;;;;;;5029078;28;20036;-70
2022/03/31 05:31:55;;;;;;;30.38;20.70;;;5.40;99.90;;;;;;5032928;28;20025;-70
2022/03/31 05:34:21;;;;;;;30.35;20.33;;;5.50;99.90;;;;;;5033873;28;20029;-71
2022/03/31 05:36:47;;;;;;;33.15;21.33;;;5.50;99.90;;;;;;5035090;28;20036;-71
2022/03/31 05:39:13;;;;;;;34.95;22.10;;;5.50;99.90;;;;;;5039245;28;20038;-70
2022/03/31 05:41:38;;;;;;;33.75;21.80;;;5.50;99.90;;;;;;5037012;28;20586;-70
2022/03/31 05:44:05;;;;;;;32.67;20.60;;;5.40;99.90;;;;;;5036380;28;20044;-70
2022/03/31 05:46:31;;;;;;;33.05;21.65;;;5.40;99.90;;;;;;5032175;28;20037;-71
2022/03/31 05:48:57;;;;;;;36.08;21.55;;;5.50;99.90;;;;;;5034898;28;20064;-70
2022/03/31 05:51:22;;;;;;;34.30;22.23;;;5.50;99.90;;;;;;5038491;28;20065;-70
2022/03/31 05:53:48;;;;;;;32.40;21.33;;;5.50;99.90;;;;;;5041739;28;20054;-70
2022/03/31 05:56:14;;;;;;;35.97;22.00;;;5.50;99.90;;;;;;5034524;28;20056;-70
2022/03/31 05:58:40;;;;;;;34.85;21.50;;;5.50;99.90;;;;;;5042243;28;20481;-70
2022/03/31 06:01:05;;;;;;;33.92;21.90;;;5.50;99.90;;;;;;5037095;28;20049;-70
2022/03/31 06:03:31;;;;;;;35.13;22.52;;;5.50;99.90;;;;;;5029156;28;20037;-70
2022/03/31 06:05:57;;;;;;;34.92;22.45;;;5.50;99.90;;;;;;5033833;28;20052;-70
2022/03/31 06:08:23;;;;;;;36.42;23.13;;;5.50;99.90;;;;;;5036606;28;20094;-70
2022/03/31 06:10:49;;;;;;;36.00;23.08;;;5.60;99.90;;;;;;5038719;28;20104;-71
2022/03/31 06:13:15;;;;;;;36.42;22.10;;;5.60;99.90;;;;;;5037058;28;20094;-70
2022/03/31 06:15:41;;;;;;;35.20;22.20;;;5.60;99.90;;;;;;5043759;28;20501;-71
2022/03/31 06:18:07;;;;;;;37.85;23.10;;;5.50;99.90;;;;;;5046297;28;20040;-71
2022/03/31 06:20:34;;;;;;;35.85;22.38;;;5.60;99.90;;;;;;5035048;28;20320;-71
2022/03/31 06:23:00;;;;;;;36.00;22.08;;;5.50;99.90;;;;;;5034472;28;20036;-71
2022/03/31 06:25:26;;;;;;;37.63;23.25;;;5.60;99.90;;;;;;5025407;28;20021;-71
2022/03/31 06:27:53;;;;;;;35.42;21.75;;;5.50;99.90;;;;;;5038108;28;20039;-71
2022/03/31 06:30:18;;;;;;;33.95;21.58;;;5.60;99.90;;;;;;5042639;28;20428;-71
2022/03/31 06:32:45;;;;;;;34.05;21.10;;;5.60;99.90;;;;;;5041211;28;20037;-71
2022/03/31 06:35:14;;;;;;;35.10;22.52;;;5.60;99.90;;;;;;5040844;28;20033;-71
2022/03/31 06:37:41;;;;;;;31.70;20.38;;;5.60;99.90;;;;;;5037378;28;20489;-71
2022/03/31 06:40:09;;;;;;;31.67;20.27;;;5.60;99.90;;;;;;5045915;28;20122;-71
2022/03/31 06:42:35;;;;;;;31.65;19.85;;;5.70;99.90;;;;;;5045894;28;20496;-71
2022/03/31 06:45:01;;;;;;;31.02;19.88;;;5.70;99.90;;;;;;5035922;28;20048;-71
2022/03/31 06:47:28;;;;;;;31.73;19.85;;;5.70;99.90;;;;;;5040392;28;20029;-70
2022/03/31 06:49:54;;;;;;;35.17;20.35;;;5.70;99.90;;;;;;5039348;28;20037;-70
2022/03/31 06:52:19;;;;;;;31.80;20.65;;;5.60;99.90;;;;;;5044454;28;20116;-71
2022/03/31 06:54:45;;;;;;;31.33;19.45;;;5.70;99.90;;;;;;5025152;28;20381;-70
2022/03/31 06:57:10;;;;;;;29.45;19.05;;;5.70;99.90;;;;;;5026915;28;20025;-70
2022/03/31 06:59:36;;;;;;;30.92;19.40;;;5.70;99.90;;;;;;5031137;28;20539;-70
2022/03/31 07:02:02;;;;;;;28.65;19.27;;;5.70;99.90;;;;;;5034366;28;20033;-70
2022/03/31 07:04:27;;;;;;;34.75;19.75;;;5.70;99.90;;;;;;5040247;28;20457;-70
2022/03/31 07:06:53;;;;;;;29.33;19.67;;;5.70;99.90;;;;;;5031922;28;20029;-70
2022/03/31 07:09:19;;;;;;;30.63;19.15;;;5.70;99.90;;;;;;5027227;28;20039;-70
2022/03/31 07:11:44;;;;;;;32.05;20.23;;;5.70;99.90;;;;;;5032525;28;20071;-70
2022/03/31 07:14:10;;;;;;;34.90;20.73;;;5.80;99.90;;;;;;5029908;28;20037;-70
2022/03/31 07:16:36;;;;;;;34.40;20.98;;;5.80;99.90;;;;;;5027564;28;20037;-70
2022/03/31 07:19:03;;;;;;;35.83;21.48;;;5.80;99.90;;;;;;5032755;28;20029;-70
2022/03/31 07:21:29;;;;;;;36.03;20.90;;;5.80;99.90;;;;;;5045034;28;20032;-70
2022/03/31 07:23:55;;;;;;;35.88;21.52;;;5.80;99.90;;;;;;5043479;28;20259;-70
2022/03/31 07:26:22;;;;;;;36.35;21.90;;;5.80;99.90;;;;;;5031091;28;20045;-71
2022/03/31 07:28:48;;;;;;;37.17;22.67;;;5.70;99.90;;;;;;5026018;28;20038;-70
2022/03/31 07:31:14;;;;;;;36.05;21.83;;;5.70;99.90;;;;;;5042945;28;20132;-70
2022/03/31 07:33:40;;;;;;;40.17;22.85;;;5.70;99.90;;;;;;5042734;28;20025;-70
2022/03/31 07:36:07;;;;;;;42.00;24.17;;;5.70;99.90;;;;;;5040984;28;20031;-71
2022/03/31 07:38:33;;;;;;;36.97;22.42;;;5.70;99.90;;;;;;5045555;28;20078;-71
2022/03/31 07:40:59;;;;;;;40.70;23.65;;;5.80;99.90;;;;;;5038711;28;20037;-71
2022/03/31 07:43:27;;;;;;;41.67;24.63;;;5.80;99.90;;;;;;5044635;28;20083;-71
2022/03/31 07:45:52;;;;;;;45.50;26.55;;;5.80;99.90;;;;;;5040851;28;20033;-71
2022/03/31 07:48:18;;;;;;;44.20;25.95;;;5.80;99.90;;;;;;5046871;28;20035;-71
2022/03/31 07:50:44;;;;;;;42.22;25.25;;;5.80;99.90;;;;;;5041731;28;20092;-70
2022/03/31 07:53:11;;;;;;;46.63;26.38;;;5.80;99.90;;;;;;5038413;28;20021;-71
2022/03/31 07:55:37;;;;;;;44.45;26.73;;;5.80;99.90;;;;;;5041120;28;20056;-71
2022/03/31 07:58:03;;;;;;;45.65;26.52;;;5.90;99.90;;;;;;5031621;28;20075;-71
2022/03/31 08:00:29;;;;;;;49.70;28.35;;;5.90;99.90;;;;;;5048485;28;20107;-71
2022/03/31 08:02:57;;;;;;;49.17;27.73;;;5.90;99.90;;;;;;5042240;28;20501;-71
2022/03/31 08:05:25;;;;;;;48.15;27.27;;;6.00;99.90;;;;;;5044980;28;20029;-73
2022/03/31 08:07:51;;;;;;;46.08;26.55;;;6.00;99.90;;;;;;5044351;28;20126;-70
2022/03/31 08:10:18;;;;;;;47.08;25.70;;;6.00;99.90;;;;;;5041556;28;20021;-72
2022/03/31 08:12:45;;;;;;;50.13;28.00;;;6.00;99.90;;;;;;5033662;28;20027;-71
2022/03/31 08:15:14;;;;;;;48.78;26.05;;;6.10;99.90;;;;;;5043178;28;20036;-71
2022/03/31 08:17:39;;;;;;;46.15;26.40;;;6.10;99.90;;;;;;5043640;28;20536;-72
2022/03/31 08:20:07;;;;;;;43.08;24.75;;;6.10;99.90;;;;;;5035454;28;20025;-72
2022/03/31 08:22:33;;;;;;;44.45;25.20;;;6.10;99.90;;;;;;5046809;28;20116;-72
2022/03/31 08:24:59;;;;;;;41.65;24.45;;;6.20;99.90;;;;;;5040942;28;20087;-72
2022/03/31 08:27:25;;;;;;;41.08;24.48;;;6.20;99.90;;;;;;5029825;28;20037;-72
2022/03/31 08:29:51;;;;;;;40.33;23.63;;;6.20;99.90;;;;;;5029325;28;20489;-72
2022/03/31 08:32:16;;;;;;;40.17;22.98;;;6.20;99.90;;;;;;5045686;28;20226;-73
2022/03/31 08:34:42;;;;;;;38.50;23.33;;;6.20;99.90;;;;;;5033268;28;20330;-72
2022/03/31 08:37:08;;;;;;;41.05;23.65;;;6.20;99.90;;;;;;5046864;28;20091;-71
2022/03/31 08:39:33;;;;;;;40.65;22.67;;;6.10;99.90;;;;;;5045720;28;20472;-72
2022/03/31 08:41:59;;;;;;;39.85;23.38;;;6.10;99.90;;;;;;5044105;28;20025;-71
2022/03/31 08:44:25;;;;;;;43.72;24.95;;;6.10;99.90;;;;;;5034212;28;20060;-71
2022/03/31 08:46:51;;;;;;;44.00;25.17;;;6.00;99.90;;;;;;5036908;28;20432;-72
2022/03/31 08:49:17;;;;;;;46.85;25.85;;;6.00;99.90;;;;;;5039551;28;20033;-72
2022/03/31 08:51:44;;;;;;;46.25;25.52;;;6.00;99.90;;;;;;5043574;28;20034;-71
2022/03/31 08:54:10;;;;;;;43.70;25.35;;;5.90;99.90;;;;;;5039166;28;20025;-71
2022/03/31 08:56:37;;;;;;;46.13;26.77;;;6.00;99.90;;;;;;5050686;28;20538;-71
2022/03/31 08:59:02;;;;;;;46.50;24.75;;;6.00;99.90;;;;;;5041449;28;20034;-72
2022/03/31 09:01:30;;;;;;;47.55;26.52;;;5.90;99.90;;;;;;5057285;28;20079;-71
2022/03/31 09:03:55;;;;;;;51.17;28.75;;;5.90;99.90;;;;;;5047370;28;20031;-71
2022/03/31 09:06:31;;;;;;;51.92;29.08;;;6.00;99.90;;;;;;5048470;28;20028;-71
2022/03/31 09:08:58;;;;;;;49.75;27.90;;;6.00;99.90;;;;;;5056045;28;20032;-72
2022/03/31 09:11:37;;;;;;;51.30;28.23;;;6.00;99.90;;;;;;5032293;28;20128;-72
2022/03/31 09:14:06;;;;;;;52.00;28.38;;;6.00;99.90;;;;;;5039332;28;20030;-71
2022/03/31 09:16:39;;;;;;;53.20;28.83;;;6.10;99.90;;;;;;5047324;28;20025;-72
2022/03/31 09:19:09;;;;;;;48.00;27.63;;;6.10;99.90;;;;;;5044608;28;20079;-71
2022/03/31 09:21:48;;;;;;;50.63;28.73;;;6.10;99.90;;;;;;5034657;28;20037;-72
2022/03/31 09:24:18;;;;;;;53.65;29.95;;;6.10;99.90;;;;;;5043182;28;20047;-71
2022/03/31 09:26:48;;;;;;;52.42;29.33;;;6.10;99.90;;;;;;5046878;28;20029;-71
2022/03/31 09:29:15;;;;;;;52.90;29.40;;;6.10;99.90;;;;;;5052781;28;20038;-71
2022/03/31 09:31:41;;;;;;;53.17;28.98;;;6.20;99.90;;;;;;5038953;28;20041;-72
2022/03/31 09:34:08;;;;;;;46.53;27.20;;;6.30;99.90;;;;;;5053700;28;20507;-71
2022/03/31 09:36:36;;;;;;;47.28;27.02;;;6.30;99.90;;;;;;5048005;28;20028;-72
2022/03/31 09:39:07;;;;;;;49.65;27.85;;;6.40;99.90;;;;;;5045433;28;20017;-70
2022/03/31 09:41:37;;;;;;;51.80;28.42;;;6.50;99.90;;;;;;5045524;28;20115;-71
2022/03/31 09:44:12;;;;;;;47.85;27.98;;;6.50;99.90;;;;;;5040280;28;20477;-72
2022/03/31 09:46:39;;;;;;;50.90;30.02;;;6.40;99.90;;;;;;5032854;28;20044;-71
2022/03/31 09:49:17;;;;;;;49.85;28.58;;;6.40;99.90;;;;;;5045489;28;20045;-71
2022/03/31 09:51:48;;;;;;;51.47;28.63;;;6.40;99.90;;;;;;5057139;28;20045;-72
2022/03/31 09:54:15;;;;;;;49.05;27.75;;;6.50;99.90;;;;;;5036834;28;20078;-70
2022/03/31 09:56:41;;;;;;;48.17;27.65;;;6.60;99.90;;;;;;5032826;28;20234;-71
2022/03/31 09:59:11;;;;;;;47.75;27.67;;;6.60;99.90;;;;;;5029209;28;20025;-71
2022/03/31 10:01:38;;;;;;;52.67;28.15;;;6.60;99.90;;;;;;5036049;28;20520;-70
2022/03/31 10:04:08;;;;;;;50.05;27.85;;;6.60;99.90;;;;;;5050435;28;20328;-70
2022/03/31 10:06:35;;;;;;;46.25;26.95;;;6.60;99.90;;;;;;5047623;28;20484;-70
2022/03/31 10:09:03;;;;;;;42.65;25.38;;;6.60;99.90;;;;;;5034769;28;20047;-72
2022/03/31 10:11:31;;;;;;;42.58;25.77;;;6.60;99.90;;;;;;5046364;28;20033;-72
2022/03/31 10:14:16;;;;;;;43.13;26.30;;;6.60;99.90;;;;;;5031921;28;20028;-71
2022/03/31 10:16:47;;;;;;;46.83;25.67;;;6.60;99.90;;;;;;5036819;28;20025;-72
2022/03/31 10:19:32;;;;;;;40.75;24.70;;;6.60;99.90;;;;;;5037235;28;20039;-71
2022/03/31 10:25:08;;;;;;;41.88;25.25;;;6.70;99.90;;;;;;5040015;28;20058;-71
2022/03/31 10:27:36;;;;;;;41.58;25.65;;;6.80;99.90;;;;;;5046299;28;20205;-71
2022/03/31 10:30:21;;;;;;;40.42;24.00;;;6.80;99.90;;;;;;5035698;28;20516;-71
2022/03/31 10:32:54;;;;;;;40.40;24.52;;;6.80;99.90;;;;;;5042851;28;20185;-71
2022/03/31 10:35:28;;;;;;;40.90;24.85;;;6.80;99.90;;;;;;5038565;28;20366;-71
2022/03/31 10:37:54;;;;;;;44.58;25.42;;;6.60;99.90;;;;;;5044307;28;20128;-71
2022/03/31 10:40:30;;;;;;;42.05;25.77;;;6.60;99.90;;;;;;5047656;28;20032;-71
2022/03/31 10:42:56;;;;;;;41.80;26.27;;;;;;;;;;5036084;28;20017;-71
2022/03/31 10:45:32;;;;;;;45.28;27.00;;;;;;;;;;5037276;28;20056;-71
2022/03/31 10:47:58;;;;;;;45.70;27.35;;;6.30;99.90;;;;;;5036927;28;20025;-70
2022/03/31 10:50:25;;;;;;;45.95;27.73;;;6.70;99.90;;;;;;5040727;28;20037;-70
2022/03/31 10:52:59;;;;;;;45.97;27.58;;;6.60;99.90;;;;;;5056338;28;20100;-70
2022/03/31 10:55:43;;;;;;;53.03;29.55;;;6.60;99.90;;;;;;5046032;28;20447;-70
2022/03/31 10:58:30;;;;;;;52.30;30.10;;;6.60;99.90;;;;;;5041538;28;20078;-70
2022/03/31 11:00:57;;;;;;;48.00;28.85;;;6.60;99.90;;;;;;5042196;28;20473;-69
2022/03/31 11:03:23;;;;;;;47.80;29.08;;;6.40;99.90;;;;;;4340433;28;10000799;-70
2022/03/31 11:05:49;;;;;;;50.38;29.30;;;6.30;99.90;;;;;;5040816;28;20028;-70
2022/03/31 11:08:17;;;;;;;48.80;29.45;;;6.30;99.90;;;;;;5036682;28;20444;-71
2022/03/31 11:10:49;;;;;;;47.85;28.55;;;6.30;99.90;;;;;;5039711;28;20053;-71
2022/03/31 11:13:17;;;;;;;50.47;28.98;;;6.30;99.90;;;;;;5062417;28;20576;-71
2022/03/31 11:15:46;;;;;;;47.05;27.58;;;6.40;99.90;;;;;;5030603;28;20017;-71
2022/03/31 11:18:11;;;;;;;48.95;27.77;;;6.40;99.90;;;;;;5042174;28;20586;-70
2022/03/31 11:20:37;;;;;;;48.63;29.95;;;6.40;99.90;;;;;;5038427;28;20021;-71
2022/03/31 11:23:06;;;;;;;49.13;28.48;;;6.40;99.90;;;;;;5037425;28;20241;-70
2022/03/31 11:25:31;;;;;;;52.85;28.85;;;6.30;99.90;;;;;;5038784;28;20037;-70
2022/03/31 11:27:58;;;;;;;45.97;27.80;;;6.30;99.90;;;;;;5043495;28;20028;-70
2022/03/31 11:30:29;;;;;;;40.63;25.40;;;6.30;99.90;;;;;;5036184;28;20049;-71
2022/03/31 11:32:56;;;;;;;43.65;25.77;;;6.30;99.90;;;;;;5033296;28;20040;-71
2022/03/31 11:35:26;;;;;;;38.08;24.20;;;6.30;99.90;;;;;;5021826;28;20033;-71
2022/03/31 11:38:00;;;;;;;38.28;23.33;;;6.30;99.90;;;;;;5032117;28;20037;-71
2022/03/31 11:40:31;;;;;;;37.70;23.95;;;6.40;99.90;;;;;;5039166;28;20563;-70
2022/03/31 11:42:59;;;;;;;40.08;24.08;;;6.40;99.90;;;;;;5026170;28;20091;-72
2022/03/31 11:45:30;;;;;;;39.47;23.15;;;6.40;99.90;;;;;;5019415;28;20045;-71
2022/03/31 11:47:56;;;;;;;36.65;23.48;;;6.40;99.90;;;;;;5019051;28;20033;-71
2022/03/31 11:50:21;;;;;;;39.30;23.95;;;6.50;99.90;;;;;;5029734;28;20040;-70
2022/03/31 11:52:48;;;;;;;36.53;23.23;;;6.40;99.90;;;;;;5025554;28;20045;-71
2022/03/31 11:55:14;;;;;;;37.75;24.88;;;6.50;99.90;;;;;;5033052;28;20116;-70
2022/03/31 11:57:59;;;;;;;39.45;24.50;;;6.40;99.90;;;;;;5030153;28;20600;-71
2022/03/31 12:00:30;;;;;;;38.83;24.38;;;6.50;99.90;;;;;;5025843;28;20041;-70
2022/03/31 12:03:04;;;;;;;39.50;25.02;;;6.40;99.90;;;;;;5025061;28;20043;-71
2022/03/31 12:05:30;;;;;;;41.60;25.58;;;6.40;99.90;;;;;;5023465;28;20065;-71
2022/03/31 12:07:57;;;;;;;45.22;26.25;;;6.30;99.90;;;;;;5032144;28;20079;-70
2022/03/31 12:10:23;;;;;;;41.85;26.77;;;6.30;99.90;;;;;;5041249;28;20727;-70
2022/03/31 12:12:53;;;;;;;44.47;26.45;;;6.30;99.90;;;;;;5028865;28;20108;-71
2022/03/31 12:15:25;;;;;;;41.00;26.35;;;6.30;99.90;;;;;;5029962;28;20025;-71
2022/03/31 12:18:06;;;;;;;41.58;27.25;;;6.30;99.90;;;;;;5031376;28;20083;-71
2022/03/31 12:20:34;;;;;;;41.55;26.88;;;6.30;99.90;;;;;;5038043;28;20033;-70
2022/03/31 12:23:00;;;;;;;44.70;27.27;;;6.30;99.90;;;;;;5030834;28;20053;-71
2022/03/31 12:25:35;;;;;;;40.45;26.48;;;6.30;99.90;;;;;;5026761;28;20409;-70
2022/03/31 12:28:05;;;;;;;40.80;25.70;;;6.30;99.90;;;;;;5032483;28;20044;-71
2022/03/31 12:30:45;;;;;;;42.78;26.42;;;6.20;99.90;;;;;;5037514;28;20048;-71
2022/03/31 12:33:47;;;;;;;39.10;25.70;;;6.20;99.90;;;;;;5032878;28;20044;-71
2022/03/31 12:36:13;;;;;;;42.85;26.83;;;6.10;99.90;;;;;;4991721;28;20391;-70
2022/03/31 12:38:52;;;;;;;42.50;26.30;;;6.20;99.90;;;;;;5030331;28;20033;-70
2022/03/31 12:41:25;;;;;;;45.25;26.15;;;6.20;99.90;;;;;;5042232;28;20028;-70
2022/03/31 12:44:12;;;;;;;41.00;25.95;;;6.30;99.90;;;;;;5055128;28;20058;-70
2022/03/31 12:47:04;;;;;;;43.50;26.58;;;6.30;99.90;;;;;;5045003;28;20444;-71